aviador You're here:

KART Decoded Metar

WATERTOWN in NY, USA
Report Time2018-01-19 10:56:00
UTC Time2018-01-19 11:17:23
Flight Rules mvfr MVFR
Wind200° at 12 kt
W.Decomp.*RWY 25: 9.5 kt HW 7.4 kt LCW
RWY 28: 4.5 kt HW 11.1 kt LCW
W.Rank200° ranks 9
Current wind is above 200° avg. (7.0)
Visibility9999 m
Phenomena:N/A
Clouds:Overcast 024 Hf
Expected CloudBase > 1,600 ft AGL from Temp-Dew spread
Ceiling2,400 ft
Temp-4°C (ISA -18)
Dew Point-8°C (74% RH)
AAT-11.2°C
QNH1013 hPa
Density Alt-1,886 ft
Elevation328 ft
Report Wrong Elevation
Raw Report
KART 191056Z AUTO 20012KT 7SM OVC024 M04/M08 A2990 RMK AO2 SLP132
T10391083 TSNO $=

Extra information for KART:More info

Metar Taf Metar & Taf Last 4 Metars F.Rules Stats Wind Profile Meteogram Temp Stats Airport Information Weather charts Add Link Nearby VenuesMetar ALERT Operation Metar Decoded Social comments

AIRNAV info for KART